sensor_id;sensor_type;location;lat;lon;timestamp;P1;durP1;ratioP1;P2;durP2;ratioP2
73113;SDS011;61301;51.956;5.876;2022-07-04T00:00:30;1.73;;;0.45;;
73113;SDS011;61301;51.956;5.876;2022-07-04T00:02:56;3.58;;;1.00;;
73113;SDS011;61301;51.956;5.876;2022-07-04T00:05:22;2.42;;;0.20;;
73113;SDS011;61301;51.956;5.876;2022-07-04T00:07:49;0.20;;;0.20;;
73113;SDS011;61301;51.956;5.876;2022-07-04T00:10:16;0.55;;;0.30;;
73113;SDS011;61301;51.956;5.876;2022-07-04T00:12:44;0.30;;;0.20;;
73113;SDS011;61301;51.956;5.876;2022-07-04T00:15:10;0.20;;;0.20;;
73113;SDS011;61301;51.956;5.876;2022-07-04T00:17:37;0.98;;;0.60;;
73113;SDS011;61301;51.956;5.876;2022-07-04T00:20:03;0.68;;;0.30;;
73113;SDS011;61301;51.956;5.876;2022-07-04T00:22:30;0.63;;;0.30;;
73113;SDS011;61301;51.956;5.876;2022-07-04T00:24:56;0.30;;;0.30;;
73113;SDS011;61301;51.956;5.876;2022-07-04T00:27:22;1.45;;;0.60;;
73113;SDS011;61301;51.956;5.876;2022-07-04T00:29:48;0.82;;;0.30;;
73113;SDS011;61301;51.956;5.876;2022-07-04T00:32:15;0.20;;;0.15;;
73113;SDS011;61301;51.956;5.876;2022-07-04T00:34:41;0.30;;;0.30;;
73113;SDS011;61301;51.956;5.876;2022-07-04T00:37:07;0.68;;;0.10;;
73113;SDS011;61301;51.956;5.876;2022-07-04T00:39:33;0.10;;;0.10;;
73113;SDS011;61301;51.956;5.876;2022-07-04T00:41:59;1.23;;;0.30;;
73113;SDS011;61301;51.956;5.876;2022-07-04T00:44:26;0.63;;;0.20;;
73113;SDS011;61301;51.956;5.876;2022-07-04T00:46:52;0.20;;;0.20;;
73113;SDS011;61301;51.956;5.876;2022-07-04T00:49:18;0.20;;;0.20;;
73113;SDS011;61301;51.956;5.876;2022-07-04T00:51:44;0.10;;;0.10;;
73113;SDS011;61301;51.956;5.876;2022-07-04T00:54:12;1.40;;;0.30;;
73113;SDS011;61301;51.956;5.876;2022-07-04T00:56:40;1.55;;;0.32;;
73113;SDS011;61301;51.956;5.876;2022-07-04T00:59:08;1.23;;;0.40;;
73113;SDS011;61301;51.956;5.876;2022-07-04T01:01:35;2.97;;;0.60;;
73113;SDS011;61301;51.956;5.876;2022-07-04T01:04:02;0.80;;;0.30;;
73113;SDS011;61301;51.956;5.876;2022-07-04T01:06:29;2.72;;;0.90;;
73113;SDS011;61301;51.956;5.876;2022-07-04T01:08:56;1.38;;;0.60;;
73113;SDS011;61301;51.956;5.876;2022-07-04T01:11:22;0.82;;;0.47;;
73113;SDS011;61301;51.956;5.876;2022-07-04T01:13:48;0.30;;;0.30;;
73113;SDS011;61301;51.956;5.876;2022-07-04T01:16:14;0.45;;;0.32;;
73113;SDS011;61301;51.956;5.876;2022-07-04T01:18:41;1.90;;;0.57;;
73113;SDS011;61301;51.956;5.876;2022-07-04T01:21:07;3.97;;;0.40;;
73113;SDS011;61301;51.956;5.876;2022-07-04T01:23:40;0.47;;;0.30;;
73113;SDS011;61301;51.956;5.876;2022-07-04T01:26:06;0.60;;;0.23;;
73113;SDS011;61301;51.956;5.876;2022-07-04T01:28:33;0.82;;;0.25;;
73113;SDS011;61301;51.956;5.876;2022-07-04T01:30:59;0.57;;;0.28;;
73113;SDS011;61301;51.956;5.876;2022-07-04T01:33:25;0.22;;;0.10;;
73113;SDS011;61301;51.956;5.876;2022-07-04T01:35:51;0.30;;;0.22;;
73113;SDS011;61301;51.956;5.876;2022-07-04T01:38:17;1.08;;;0.38;;
73113;SDS011;61301;51.956;5.876;2022-07-04T01:40:44;0.85;;;0.30;;
73113;SDS011;61301;51.956;5.876;2022-07-04T01:43:10;0.30;;;0.30;;
73113;SDS011;61301;51.956;5.876;2022-07-04T01:45:36;0.65;;;0.30;;
73113;SDS011;61301;51.956;5.876;2022-07-04T01:50:36;0.17;;;0.15;;
73113;SDS011;61301;51.956;5.876;2022-07-04T01:53:02;0.20;;;0.20;;
73113;SDS011;61301;51.956;5.876;2022-07-04T01:55:29;0.35;;;0.30;;
73113;SDS011;61301;51.956;5.876;2022-07-04T01:57:56;0.20;;;0.20;;
73113;SDS011;61301;51.956;5.876;2022-07-04T02:00:22;0.35;;;0.30;;
73113;SDS011;61301;51.956;5.876;2022-07-04T02:03:07;0.25;;;0.20;;
73113;SDS011;61301;51.956;5.876;2022-07-04T02:05:33;0.63;;;0.13;;
73113;SDS011;61301;51.956;5.876;2022-07-04T02:07:59;0.20;;;0.10;;
73113;SDS011;61301;51.956;5.876;2022-07-04T02:10:25;0.98;;;0.40;;
73113;SDS011;61301;51.956;5.876;2022-07-04T02:12:51;0.88;;;0.50;;
73113;SDS011;61301;51.956;5.876;2022-07-04T02:15:27;1.75;;;0.40;;
73113;SDS011;61301;51.956;5.876;2022-07-04T02:18:04;1.13;;;0.80;;
73113;SDS011;61301;51.956;5.876;2022-07-04T02:20:31;0.77;;;0.60;;
73113;SDS011;61301;51.956;5.876;2022-07-04T02:22:58;0.52;;;0.30;;
73113;SDS011;61301;51.956;5.876;2022-07-04T02:25:24;0.98;;;0.20;;
73113;SDS011;61301;51.956;5.876;2022-07-04T02:27:54;0.30;;;0.20;;
73113;SDS011;61301;51.956;5.876;2022-07-04T02:30:20;0.20;;;0.20;;
73113;SDS011;61301;51.956;5.876;2022-07-04T02:32:46;0.20;;;0.20;;
73113;SDS011;61301;51.956;5.876;2022-07-04T02:35:12;0.28;;;0.25;;
73113;SDS011;61301;51.956;5.876;2022-07-04T02:37:38;0.52;;;0.40;;
73113;SDS011;61301;51.956;5.876;2022-07-04T02:40:05;0.35;;;0.15;;
73113;SDS011;61301;51.956;5.876;2022-07-04T02:42:33;0.43;;;0.40;;
73113;SDS011;61301;51.956;5.876;2022-07-04T02:44:59;2.20;;;1.75;;
73113;SDS011;61301;51.956;5.876;2022-07-04T02:47:26;2.13;;;1.27;;
73113;SDS011;61301;51.956;5.876;2022-07-04T02:49:52;0.35;;;0.35;;
73113;SDS011;61301;51.956;5.876;2022-07-04T02:52:19;0.30;;;0.30;;
73113;SDS011;61301;51.956;5.876;2022-07-04T02:54:45;1.52;;;0.70;;
73113;SDS011;61301;51.956;5.876;2022-07-04T02:57:12;0.30;;;0.30;;
73113;SDS011;61301;51.956;5.876;2022-07-04T02:59:38;0.52;;;0.50;;
73113;SDS011;61301;51.956;5.876;2022-07-04T03:02:05;0.30;;;0.30;;
73113;SDS011;61301;51.956;5.876;2022-07-04T03:04:31;0.38;;;0.38;;
73113;SDS011;61301;51.956;5.876;2022-07-04T03:06:57;0.40;;;0.40;;
73113;SDS011;61301;51.956;5.876;2022-07-04T03:09:23;1.25;;;0.50;;
73113;SDS011;61301;51.956;5.876;2022-07-04T03:11:52;1.20;;;0.80;;
73113;SDS011;61301;51.956;5.876;2022-07-04T03:14:18;2.33;;;1.50;;
73113;SDS011;61301;51.956;5.876;2022-07-04T03:16:44;0.93;;;0.82;;
73113;SDS011;61301;51.956;5.876;2022-07-04T03:19:10;1.08;;;0.70;;
73113;SDS011;61301;51.956;5.876;2022-07-04T03:21:36;0.90;;;0.70;;
73113;SDS011;61301;51.956;5.876;2022-07-04T03:24:02;0.93;;;0.45;;
73113;SDS011;61301;51.956;5.876;2022-07-04T03:26:29;0.65;;;0.65;;
73113;SDS011;61301;51.956;5.876;2022-07-04T03:28:57;1.35;;;0.60;;
73113;SDS011;61301;51.956;5.876;2022-07-04T03:31:23;1.85;;;1.10;;
73113;SDS011;61301;51.956;5.876;2022-07-04T03:33:51;2.00;;;1.00;;
73113;SDS011;61301;51.956;5.876;2022-07-04T03:36:17;0.55;;;0.55;;
73113;SDS011;61301;51.956;5.876;2022-07-04T03:38:44;1.77;;;0.57;;
73113;SDS011;61301;51.956;5.876;2022-07-04T03:41:10;1.25;;;0.90;;
73113;SDS011;61301;51.956;5.876;2022-07-04T03:43:36;0.85;;;0.50;;
73113;SDS011;61301;51.956;5.876;2022-07-04T03:46:02;0.70;;;0.70;;
73113;SDS011;61301;51.956;5.876;2022-07-04T03:48:28;0.70;;;0.70;;
73113;SDS011;61301;51.956;5.876;2022-07-04T03:50:55;0.82;;;0.60;;
73113;SDS011;61301;51.956;5.876;2022-07-04T03:53:21;2.28;;;1.30;;
73113;SDS011;61301;51.956;5.876;2022-07-04T03:55:47;1.65;;;1.38;;
73113;SDS011;61301;51.956;5.876;2022-07-04T03:58:13;0.70;;;0.60;;
73113;SDS011;61301;51.956;5.876;2022-07-04T04:00:39;0.75;;;0.73;;
73113;SDS011;61301;51.956;5.876;2022-07-04T04:03:07;1.33;;;0.68;;
73113;SDS011;61301;51.956;5.876;2022-07-04T04:05:53;1.45;;;1.25;;
73113;SDS011;61301;51.956;5.876;2022-07-04T04:08:20;1.20;;;1.10;;
73113;SDS011;61301;51.956;5.876;2022-07-04T04:10:46;1.23;;;0.93;;
73113;SDS011;61301;51.956;5.876;2022-07-04T04:13:12;0.80;;;0.80;;
73113;SDS011;61301;51.956;5.876;2022-07-04T04:15:38;0.85;;;0.82;;
73113;SDS011;61301;51.956;5.876;2022-07-04T04:18:04;1.23;;;1.00;;
73113;SDS011;61301;51.956;5.876;2022-07-04T04:20:30;2.72;;;1.80;;
73113;SDS011;61301;51.956;5.876;2022-07-04T04:22:56;1.75;;;1.50;;
73113;SDS011;61301;51.956;5.876;2022-07-04T04:25:22;1.60;;;1.17;;
73113;SDS011;61301;51.956;5.876;2022-07-04T04:27:48;3.00;;;1.75;;
73113;SDS011;61301;51.956;5.876;2022-07-04T04:30:14;2.03;;;1.10;;
73113;SDS011;61301;51.956;5.876;2022-07-04T04:32:40;0.70;;;0.70;;
73113;SDS011;61301;51.956;5.876;2022-07-04T04:35:06;2.63;;;1.58;;
73113;SDS011;61301;51.956;5.876;2022-07-04T04:37:32;2.60;;;1.50;;
73113;SDS011;61301;51.956;5.876;2022-07-04T04:39:58;2.00;;;1.45;;
73113;SDS011;61301;51.956;5.876;2022-07-04T04:42:24;2.42;;;1.27;;
73113;SDS011;61301;51.956;5.876;2022-07-04T04:44:50;1.17;;;0.90;;
73113;SDS011;61301;51.956;5.876;2022-07-04T04:47:17;2.40;;;1.10;;
73113;SDS011;61301;51.956;5.876;2022-07-04T04:49:43;2.33;;;1.50;;
73113;SDS011;61301;51.956;5.876;2022-07-04T04:52:09;2.33;;;1.80;;
73113;SDS011;61301;51.956;5.876;2022-07-04T04:54:36;1.70;;;0.80;;
73113;SDS011;61301;51.956;5.876;2022-07-04T04:57:03;1.40;;;1.05;;
73113;SDS011;61301;51.956;5.876;2022-07-04T04:59:30;2.13;;;1.30;;
73113;SDS011;61301;51.956;5.876;2022-07-04T05:01:57;0.80;;;0.75;;
73113;SDS011;61301;51.956;5.876;2022-07-04T05:04:23;1.20;;;1.10;;
73113;SDS011;61301;51.956;5.876;2022-07-04T05:06:50;1.42;;;0.80;;
73113;SDS011;61301;51.956;5.876;2022-07-04T05:09:16;3.08;;;1.23;;
73113;SDS011;61301;51.956;5.876;2022-07-04T05:11:42;2.00;;;1.00;;
73113;SDS011;61301;51.956;5.876;2022-07-04T05:14:08;1.45;;;0.77;;
73113;SDS011;61301;51.956;5.876;2022-07-04T05:16:34;4.55;;;1.45;;
73113;SDS011;61301;51.956;5.876;2022-07-04T05:19:00;4.03;;;1.88;;
73113;SDS011;61301;51.956;5.876;2022-07-04T05:21:27;2.40;;;1.75;;
73113;SDS011;61301;51.956;5.876;2022-07-04T05:23:56;2.20;;;1.55;;
73113;SDS011;61301;51.956;5.876;2022-07-04T05:26:22;4.25;;;2.00;;
73113;SDS011;61301;51.956;5.876;2022-07-04T05:28:49;6.85;;;2.70;;
73113;SDS011;61301;51.956;5.876;2022-07-04T05:31:15;2.15;;;1.23;;
73113;SDS011;61301;51.956;5.876;2022-07-04T05:33:41;3.88;;;1.65;;
73113;SDS011;61301;51.956;5.876;2022-07-04T05:36:07;3.72;;;1.80;;
73113;SDS011;61301;51.956;5.876;2022-07-04T05:38:33;4.93;;;2.85;;
73113;SDS011;61301;51.956;5.876;2022-07-04T05:40:59;1.88;;;1.10;;
73113;SDS011;61301;51.956;5.876;2022-07-04T05:43:26;6.85;;;2.53;;
73113;SDS011;61301;51.956;5.876;2022-07-04T05:45:52;4.95;;;2.88;;
73113;SDS011;61301;51.956;5.876;2022-07-04T05:48:18;2.88;;;1.55;;
73113;SDS011;61301;51.956;5.876;2022-07-04T05:50:45;4.57;;;2.40;;
73113;SDS011;61301;51.956;5.876;2022-07-04T05:53:11;7.03;;;2.80;;
73113;SDS011;61301;51.956;5.876;2022-07-04T05:55:37;5.32;;;2.50;;
73113;SDS011;61301;51.956;5.876;2022-07-04T05:58:03;4.50;;;2.03;;
73113;SDS011;61301;51.956;5.876;2022-07-04T06:00:29;2.58;;;1.27;;
73113;SDS011;61301;51.956;5.876;2022-07-04T06:02:55;4.57;;;2.15;;
73113;SDS011;61301;51.956;5.876;2022-07-04T06:05:21;4.43;;;2.38;;
73113;SDS011;61301;51.956;5.876;2022-07-04T06:07:47;6.20;;;2.05;;
73113;SDS011;61301;51.956;5.876;2022-07-04T06:10:13;7.40;;;2.50;;
73113;SDS011;61301;51.956;5.876;2022-07-04T06:12:40;3.38;;;2.05;;
73113;SDS011;61301;51.956;5.876;2022-07-04T06:15:06;6.70;;;2.55;;
73113;SDS011;61301;51.956;5.876;2022-07-04T06:17:35;4.18;;;1.83;;
73113;SDS011;61301;51.956;5.876;2022-07-04T06:20:02;4.85;;;1.85;;
73113;SDS011;61301;51.956;5.876;2022-07-04T06:22:42;5.50;;;2.92;;
73113;SDS011;61301;51.956;5.876;2022-07-04T06:25:13;3.35;;;2.10;;
73113;SDS011;61301;51.956;5.876;2022-07-04T06:27:43;4.88;;;1.25;;
73113;SDS011;61301;51.956;5.876;2022-07-04T06:30:11;3.00;;;1.77;;
73113;SDS011;61301;51.956;5.876;2022-07-04T06:35:18;4.13;;;1.95;;
73113;SDS011;61301;51.956;5.876;2022-07-04T06:38:05;3.53;;;2.20;;
73113;SDS011;61301;51.956;5.876;2022-07-04T06:40:31;7.15;;;2.80;;
73113;SDS011;61301;51.956;5.876;2022-07-04T06:42:58;6.90;;;3.70;;
73113;SDS011;61301;51.956;5.876;2022-07-04T06:45:24;6.15;;;2.15;;
73113;SDS011;61301;51.956;5.876;2022-07-04T06:47:51;3.40;;;2.40;;
73113;SDS011;61301;51.956;5.876;2022-07-04T06:50:17;5.70;;;2.70;;
73113;SDS011;61301;51.956;5.876;2022-07-04T06:52:44;5.68;;;2.33;;
73113;SDS011;61301;51.956;5.876;2022-07-04T06:55:10;6.05;;;1.88;;
73113;SDS011;61301;51.956;5.876;2022-07-04T06:57:37;2.10;;;1.83;;
73113;SDS011;61301;51.956;5.876;2022-07-04T07:00:06;6.03;;;2.40;;
73113;SDS011;61301;51.956;5.876;2022-07-04T07:02:36;5.38;;;2.55;;
73113;SDS011;61301;51.956;5.876;2022-07-04T07:05:03;4.85;;;2.83;;
73113;SDS011;61301;51.956;5.876;2022-07-04T07:07:30;4.90;;;2.55;;
73113;SDS011;61301;51.956;5.876;2022-07-04T07:09:56;8.52;;;3.58;;
73113;SDS011;61301;51.956;5.876;2022-07-04T07:12:22;5.95;;;3.00;;
73113;SDS011;61301;51.956;5.876;2022-07-04T07:14:49;5.70;;;3.30;;
73113;SDS011;61301;51.956;5.876;2022-07-04T07:17:16;6.45;;;2.45;;
73113;SDS011;61301;51.956;5.876;2022-07-04T07:19:42;5.30;;;2.22;;
73113;SDS011;61301;51.956;5.876;2022-07-04T07:22:09;4.53;;;2.20;;
73113;SDS011;61301;51.956;5.876;2022-07-04T07:24:36;9.07;;;3.03;;
73113;SDS011;61301;51.956;5.876;2022-07-04T07:27:02;5.55;;;2.15;;
73113;SDS011;61301;51.956;5.876;2022-07-04T07:29:28;8.35;;;2.80;;
73113;SDS011;61301;51.956;5.876;2022-07-04T07:31:54;3.08;;;2.17;;
73113;SDS011;61301;51.956;5.876;2022-07-04T07:34:20;5.20;;;2.00;;
73113;SDS011;61301;51.956;5.876;2022-07-04T07:36:47;8.07;;;3.20;;
73113;SDS011;61301;51.956;5.876;2022-07-04T07:39:13;5.65;;;2.45;;
73113;SDS011;61301;51.956;5.876;2022-07-04T07:41:39;8.00;;;3.50;;
73113;SDS011;61301;51.956;5.876;2022-07-04T07:44:05;5.90;;;2.70;;
73113;SDS011;61301;51.956;5.876;2022-07-04T07:46:31;7.55;;;3.40;;
73113;SDS011;61301;51.956;5.876;2022-07-04T07:48:58;8.98;;;3.72;;
73113;SDS011;61301;51.956;5.876;2022-07-04T07:51:24;9.00;;;4.07;;
73113;SDS011;61301;51.956;5.876;2022-07-04T07:53:50;6.47;;;3.78;;
73113;SDS011;61301;51.956;5.876;2022-07-04T07:56:16;8.32;;;4.03;;
73113;SDS011;61301;51.956;5.876;2022-07-04T07:58:42;7.90;;;3.60;;
73113;SDS011;61301;51.956;5.876;2022-07-04T08:01:08;8.80;;;3.80;;
73113;SDS011;61301;51.956;5.876;2022-07-04T08:03:34;6.68;;;3.85;;
73113;SDS011;61301;51.956;5.876;2022-07-04T08:06:18;9.35;;;3.78;;
73113;SDS011;61301;51.956;5.876;2022-07-04T08:08:44;6.68;;;2.50;;
73113;SDS011;61301;51.956;5.876;2022-07-04T08:11:11;9.00;;;3.55;;
73113;SDS011;61301;51.956;5.876;2022-07-04T08:13:37;6.97;;;3.45;;
73113;SDS011;61301;51.956;5.876;2022-07-04T08:16:04;7.35;;;3.78;;
73113;SDS011;61301;51.956;5.876;2022-07-04T08:18:31;8.02;;;3.83;;
73113;SDS011;61301;51.956;5.876;2022-07-04T08:20:57;7.45;;;2.80;;
73113;SDS011;61301;51.956;5.876;2022-07-04T08:23:24;3.05;;;1.80;;
73113;SDS011;61301;51.956;5.876;2022-07-04T08:25:50;8.32;;;4.53;;
73113;SDS011;61301;51.956;5.876;2022-07-04T08:28:17;7.22;;;3.70;;
73113;SDS011;61301;51.956;5.876;2022-07-04T08:30:43;7.85;;;3.78;;
73113;SDS011;61301;51.956;5.876;2022-07-04T08:33:09;9.55;;;4.45;;
73113;SDS011;61301;51.956;5.876;2022-07-04T08:35:35;9.38;;;4.10;;
73113;SDS011;61301;51.956;5.876;2022-07-04T08:38:01;9.27;;;3.75;;
73113;SDS011;61301;51.956;5.876;2022-07-04T08:40:27;11.43;;;3.85;;
73113;SDS011;61301;51.956;5.876;2022-07-04T08:42:54;4.30;;;2.92;;
73113;SDS011;61301;51.956;5.876;2022-07-04T08:45:23;9.27;;;4.15;;
73113;SDS011;61301;51.956;5.876;2022-07-04T08:47:51;5.88;;;3.00;;
73113;SDS011;61301;51.956;5.876;2022-07-04T08:50:25;5.53;;;3.30;;
73113;SDS011;61301;51.956;5.876;2022-07-04T08:53:06;6.15;;;3.45;;
73113;SDS011;61301;51.956;5.876;2022-07-04T08:55:37;7.22;;;3.17;;
73113;SDS011;61301;51.956;5.876;2022-07-04T08:58:23;6.90;;;3.33;;
73113;SDS011;61301;51.956;5.876;2022-07-04T09:00:55;7.95;;;2.60;;
73113;SDS011;61301;51.956;5.876;2022-07-04T09:03:23;7.45;;;2.97;;
73113;SDS011;61301;51.956;5.876;2022-07-04T09:05:49;5.88;;;3.15;;
73113;SDS011;61301;51.956;5.876;2022-07-04T09:08:16;9.25;;;3.63;;
73113;SDS011;61301;51.956;5.876;2022-07-04T09:10:42;8.70;;;3.13;;
73113;SDS011;61301;51.956;5.876;2022-07-04T09:13:09;7.30;;;3.30;;
73113;SDS011;61301;51.956;5.876;2022-07-04T09:15:37;6.45;;;2.83;;
73113;SDS011;61301;51.956;5.876;2022-07-04T09:18:04;5.38;;;2.22;;
73113;SDS011;61301;51.956;5.876;2022-07-04T09:20:31;6.43;;;2.75;;
73113;SDS011;61301;51.956;5.876;2022-07-04T09:22:59;7.70;;;3.08;;
73113;SDS011;61301;51.956;5.876;2022-07-04T09:25:25;7.10;;;3.00;;
73113;SDS011;61301;51.956;5.876;2022-07-04T09:27:52;7.60;;;3.00;;
73113;SDS011;61301;51.956;5.876;2022-07-04T09:30:20;5.15;;;2.45;;
73113;SDS011;61301;51.956;5.876;2022-07-04T09:32:49;3.83;;;1.60;;
73113;SDS011;61301;51.956;5.876;2022-07-04T09:35:18;5.40;;;2.20;;
73113;SDS011;61301;51.956;5.876;2022-07-04T09:37:50;3.70;;;2.00;;
73113;SDS011;61301;51.956;5.876;2022-07-04T09:43:20;7.25;;;2.17;;
73113;SDS011;61301;51.956;5.876;2022-07-04T09:48:22;1.67;;;1.08;;
73113;SDS011;61301;51.956;5.876;2022-07-04T09:50:48;4.40;;;1.60;;
73113;SDS011;61301;51.956;5.876;2022-07-04T09:53:14;6.90;;;2.20;;
73113;SDS011;61301;51.956;5.876;2022-07-04T09:55:40;4.65;;;1.75;;
73113;SDS011;61301;51.956;5.876;2022-07-04T09:58:09;4.70;;;1.30;;
73113;SDS011;61301;51.956;5.876;2022-07-04T10:00:37;4.63;;;1.05;;
73113;SDS011;61301;51.956;5.876;2022-07-04T10:06:07;4.05;;;1.40;;
73113;SDS011;61301;51.956;5.876;2022-07-04T10:08:38;5.05;;;1.95;;
73113;SDS011;61301;51.956;5.876;2022-07-04T10:11:05;3.50;;;1.15;;
73113;SDS011;61301;51.956;5.876;2022-07-04T10:13:33;5.85;;;1.90;;
73113;SDS011;61301;51.956;5.876;2022-07-04T10:15:59;6.00;;;1.75;;
73113;SDS011;61301;51.956;5.876;2022-07-04T10:18:25;2.42;;;1.20;;
73113;SDS011;61301;51.956;5.876;2022-07-04T10:20:52;5.90;;;1.45;;
73113;SDS011;61301;51.956;5.876;2022-07-04T10:23:19;6.18;;;1.50;;
73113;SDS011;61301;51.956;5.876;2022-07-04T10:25:47;4.88;;;1.45;;
73113;SDS011;61301;51.956;5.876;2022-07-04T10:28:14;4.00;;;1.08;;
73113;SDS011;61301;51.956;5.876;2022-07-04T10:30:41;3.90;;;1.67;;
73113;SDS011;61301;51.956;5.876;2022-07-04T10:33:09;5.97;;;1.40;;
73113;SDS011;61301;51.956;5.876;2022-07-04T10:35:46;4.03;;;1.60;;
73113;SDS011;61301;51.956;5.876;2022-07-04T10:38:17;4.85;;;1.73;;
73113;SDS011;61301;51.956;5.876;2022-07-04T10:45:56;7.80;;;1.70;;
73113;SDS011;61301;51.956;5.876;2022-07-04T10:48:23;2.72;;;1.10;;
73113;SDS011;61301;51.956;5.876;2022-07-04T10:51:02;1.48;;;0.70;;
73113;SDS011;61301;51.956;5.876;2022-07-04T10:53:30;1.40;;;0.80;;
73113;SDS011;61301;51.956;5.876;2022-07-04T10:56:29;4.80;;;1.35;;
73113;SDS011;61301;51.956;5.876;2022-07-04T10:58:52;4.22;;;1.35;;
73113;SDS011;61301;51.956;5.876;2022-07-04T11:01:19;3.22;;;1.20;;
73113;SDS011;61301;51.956;5.876;2022-07-04T11:03:46;1.33;;;0.70;;
73113;SDS011;61301;51.956;5.876;2022-07-04T11:11:55;1.88;;;1.10;;
73113;SDS011;61301;51.956;5.876;2022-07-04T11:14:35;3.30;;;0.90;;
73113;SDS011;61301;51.956;5.876;2022-07-04T11:17:06;2.03;;;0.93;;
73113;SDS011;61301;51.956;5.876;2022-07-04T11:19:32;3.63;;;1.15;;
73113;SDS011;61301;51.956;5.876;2022-07-04T11:21:58;4.10;;;1.33;;
73113;SDS011;61301;51.956;5.876;2022-07-04T11:24:25;2.05;;;0.80;;
73113;SDS011;61301;51.956;5.876;2022-07-04T11:26:51;3.72;;;1.27;;
73113;SDS011;61301;51.956;5.876;2022-07-04T11:29:17;2.20;;;1.08;;
73113;SDS011;61301;51.956;5.876;2022-07-04T11:31:47;4.47;;;1.13;;
73113;SDS011;61301;51.956;5.876;2022-07-04T11:34:14;2.33;;;1.10;;
73113;SDS011;61301;51.956;5.876;2022-07-04T11:36:42;2.05;;;0.60;;
73113;SDS011;61301;51.956;5.876;2022-07-04T11:39:10;2.58;;;0.98;;
73113;SDS011;61301;51.956;5.876;2022-07-04T11:41:42;2.08;;;0.95;;
73113;SDS011;61301;51.956;5.876;2022-07-04T11:44:28;3.95;;;1.27;;
73113;SDS011;61301;51.956;5.876;2022-07-04T11:52:18;2.65;;;0.90;;
73113;SDS011;61301;51.956;5.876;2022-07-04T11:54:46;2.03;;;0.93;;
73113;SDS011;61301;51.956;5.876;2022-07-04T11:57:14;1.13;;;0.73;;
73113;SDS011;61301;51.956;5.876;2022-07-04T11:59:52;3.35;;;0.98;;
73113;SDS011;61301;51.956;5.876;2022-07-04T12:02:19;2.30;;;0.65;;
73113;SDS011;61301;51.956;5.876;2022-07-04T12:04:45;1.88;;;0.77;;
73113;SDS011;61301;51.956;5.876;2022-07-04T12:07:12;3.70;;;1.15;;
73113;SDS011;61301;51.956;5.876;2022-07-04T12:09:44;1.65;;;0.75;;
73113;SDS011;61301;51.956;5.876;2022-07-04T12:12:11;1.65;;;0.73;;
73113;SDS011;61301;51.956;5.876;2022-07-04T12:14:38;5.05;;;1.02;;
73113;SDS011;61301;51.956;5.876;2022-07-04T12:19:50;4.18;;;1.02;;
73113;SDS011;61301;51.956;5.876;2022-07-04T12:22:35;4.03;;;1.23;;
73113;SDS011;61301;51.956;5.876;2022-07-04T12:25:03;1.38;;;0.75;;
73113;SDS011;61301;51.956;5.876;2022-07-04T12:27:50;2.33;;;0.93;;
73113;SDS011;61301;51.956;5.876;2022-07-04T12:30:17;2.13;;;0.90;;
73113;SDS011;61301;51.956;5.876;2022-07-04T12:32:44;3.47;;;1.10;;
73113;SDS011;61301;51.956;5.876;2022-07-04T12:35:31;2.30;;;0.95;;
73113;SDS011;61301;51.956;5.876;2022-07-04T12:38:07;5.88;;;1.50;;
73113;SDS011;61301;51.956;5.876;2022-07-04T12:40:35;2.40;;;1.15;;
73113;SDS011;61301;51.956;5.876;2022-07-04T12:43:02;2.63;;;0.80;;
73113;SDS011;61301;51.956;5.876;2022-07-04T12:45:42;2.97;;;1.05;;
73113;SDS011;61301;51.956;5.876;2022-07-04T12:48:19;0.98;;;0.70;;
73113;SDS011;61301;51.956;5.876;2022-07-04T12:50:48;1.52;;;0.70;;
73113;SDS011;61301;51.956;5.876;2022-07-04T12:53:15;1.98;;;0.80;;
73113;SDS011;61301;51.956;5.876;2022-07-04T12:55:45;4.03;;;1.52;;
73113;SDS011;61301;51.956;5.876;2022-07-04T12:58:13;2.55;;;0.93;;
73113;SDS011;61301;51.956;5.876;2022-07-04T13:00:40;3.70;;;0.77;;
73113;SDS011;61301;51.956;5.876;2022-07-04T13:03:06;0.85;;;0.50;;
73113;SDS011;61301;51.956;5.876;2022-07-04T13:05:33;1.83;;;1.02;;
73113;SDS011;61301;51.956;5.876;2022-07-04T13:08:01;1.95;;;0.90;;
73113;SDS011;61301;51.956;5.876;2022-07-04T13:10:27;2.28;;;0.80;;
73113;SDS011;61301;51.956;5.876;2022-07-04T13:12:56;0.57;;;0.57;;
73113;SDS011;61301;51.956;5.876;2022-07-04T13:15:23;1.75;;;0.65;;
73113;SDS011;61301;51.956;5.876;2022-07-04T13:17:49;1.15;;;0.40;;
73113;SDS011;61301;51.956;5.876;2022-07-04T13:20:15;1.17;;;0.55;;
73113;SDS011;61301;51.956;5.876;2022-07-04T13:22:41;2.70;;;1.08;;
73113;SDS011;61301;51.956;5.876;2022-07-04T13:25:07;1.48;;;1.00;;
73113;SDS011;61301;51.956;5.876;2022-07-04T13:27:33;5.32;;;0.90;;
73113;SDS011;61301;51.956;5.876;2022-07-04T13:29:59;2.30;;;1.05;;
73113;SDS011;61301;51.956;5.876;2022-07-04T13:32:25;2.15;;;1.10;;
73113;SDS011;61301;51.956;5.876;2022-07-04T13:34:51;2.13;;;0.82;;
73113;SDS011;61301;51.956;5.876;2022-07-04T13:37:17;1.60;;;0.70;;
73113;SDS011;61301;51.956;5.876;2022-07-04T13:39:44;1.85;;;0.95;;
73113;SDS011;61301;51.956;5.876;2022-07-04T13:42:10;1.08;;;0.55;;
73113;SDS011;61301;51.956;5.876;2022-07-04T13:44:37;2.50;;;0.90;;
73113;SDS011;61301;51.956;5.876;2022-07-04T13:47:03;3.78;;;0.95;;
73113;SDS011;61301;51.956;5.876;2022-07-04T13:49:29;3.17;;;1.00;;
73113;SDS011;61301;51.956;5.876;2022-07-04T13:51:55;1.05;;;0.57;;
73113;SDS011;61301;51.956;5.876;2022-07-04T13:54:21;1.48;;;0.77;;
73113;SDS011;61301;51.956;5.876;2022-07-04T13:56:47;2.33;;;0.60;;
73113;SDS011;61301;51.956;5.876;2022-07-04T13:59:13;1.20;;;0.40;;
73113;SDS011;61301;51.956;5.876;2022-07-04T14:01:39;1.33;;;0.80;;
73113;SDS011;61301;51.956;5.876;2022-07-04T14:04:06;2.40;;;0.88;;
73113;SDS011;61301;51.956;5.876;2022-07-04T14:06:32;1.88;;;0.65;;
73113;SDS011;61301;51.956;5.876;2022-07-04T14:08:58;3.22;;;1.05;;
73113;SDS011;61301;51.956;5.876;2022-07-04T14:11:24;0.82;;;0.60;;
73113;SDS011;61301;51.956;5.876;2022-07-04T14:13:50;1.55;;;0.80;;
73113;SDS011;61301;51.956;5.876;2022-07-04T14:16:16;1.38;;;0.47;;
73113;SDS011;61301;51.956;5.876;2022-07-04T14:18:42;1.58;;;0.60;;
73113;SDS011;61301;51.956;5.876;2022-07-04T14:21:08;2.70;;;0.80;;
73113;SDS011;61301;51.956;5.876;2022-07-04T14:23:34;1.20;;;0.68;;
73113;SDS011;61301;51.956;5.876;2022-07-04T14:26:10;1.83;;;0.98;;
73113;SDS011;61301;51.956;5.876;2022-07-04T14:28:38;1.55;;;0.85;;
73113;SDS011;61301;51.956;5.876;2022-07-04T14:31:05;1.65;;;0.70;;
73113;SDS011;61301;51.956;5.876;2022-07-04T14:33:31;0.85;;;0.50;;
73113;SDS011;61301;51.956;5.876;2022-07-04T14:35:59;1.30;;;0.60;;
73113;SDS011;61301;51.956;5.876;2022-07-04T14:38:26;2.20;;;0.82;;
73113;SDS011;61301;51.956;5.876;2022-07-04T14:40:52;2.78;;;1.42;;
73113;SDS011;61301;51.956;5.876;2022-07-04T14:43:18;0.75;;;0.47;;
73113;SDS011;61301;51.956;5.876;2022-07-04T14:45:44;1.23;;;0.70;;
73113;SDS011;61301;51.956;5.876;2022-07-04T14:48:15;3.60;;;0.68;;
73113;SDS011;61301;51.956;5.876;2022-07-04T14:50:41;1.70;;;0.80;;
73113;SDS011;61301;51.956;5.876;2022-07-04T14:53:08;2.95;;;0.60;;
73113;SDS011;61301;51.956;5.876;2022-07-04T14:55:34;2.28;;;0.88;;
73113;SDS011;61301;51.956;5.876;2022-07-04T14:58:00;2.35;;;0.70;;
73113;SDS011;61301;51.956;5.876;2022-07-04T15:00:26;1.65;;;0.63;;
73113;SDS011;61301;51.956;5.876;2022-07-04T15:02:52;1.30;;;0.38;;
73113;SDS011;61301;51.956;5.876;2022-07-04T15:05:18;1.50;;;0.68;;
73113;SDS011;61301;51.956;5.876;2022-07-04T15:07:44;0.93;;;0.50;;
73113;SDS011;61301;51.956;5.876;2022-07-04T15:10:10;1.95;;;0.77;;
73113;SDS011;61301;51.956;5.876;2022-07-04T15:12:38;2.17;;;0.70;;
73113;SDS011;61301;51.956;5.876;2022-07-04T15:15:04;2.60;;;0.65;;
73113;SDS011;61301;51.956;5.876;2022-07-04T15:17:30;0.80;;;0.40;;
73113;SDS011;61301;51.956;5.876;2022-07-04T15:19:56;0.82;;;0.50;;
73113;SDS011;61301;51.956;5.876;2022-07-04T15:22:40;2.28;;;0.57;;